Time;durP1;ratioP1;P1;durP2;ratioP2;P2;SDS_P1;SDS_P2;PMS_P1;PMS_P2;Temp;Humidity;BMP_temperature;BMP_pressure;BME280_temperature;BME280_humidity;BME280_pressure;Samples;Min_cycle;Max_cycle;Signal;HPM_P1;HPM_P2
2022/12/27 00:01:55;;;;;;;6.65;1.45;;;7.90;99.90;;;;;;5027256;28;20033;-69
2022/12/27 00:04:21;;;;;;;15.55;2.67;;;7.90;99.90;;;;;;5034598;28;20049;-69
2022/12/27 00:06:47;;;;;;;11.57;1.52;;;7.90;99.90;;;;;;5031459;28;20025;-68
2022/12/27 00:09:13;;;;;;;9.43;2.42;;;7.90;99.90;;;;;;5034841;28;20037;-69
2022/12/27 00:11:38;;;;;;;7.55;1.63;;;7.90;99.90;;;;;;5031372;28;20049;-69
2022/12/27 00:14:06;;;;;;;9.30;2.00;;;7.90;99.90;;;;;;5034429;28;20022;-68
2022/12/27 00:16:32;;;;;;;11.38;1.48;;;7.90;99.90;;;;;;5022994;28;20088;-69
2022/12/27 00:18:58;;;;;;;16.75;2.90;;;7.90;99.90;;;;;;5033736;28;20041;-69
2022/12/27 00:21:24;;;;;;;23.10;2.97;;;7.90;99.90;;;;;;5034035;28;20056;-69
2022/12/27 00:23:53;;;;;;;6.13;1.50;;;7.90;99.90;;;;;;5034216;28;20053;-69
2022/12/27 00:26:25;;;;;;;17.33;2.15;;;8.00;99.90;;;;;;5028589;28;20025;-69
2022/12/27 00:28:51;;;;;;;10.63;1.65;;;8.00;99.90;;;;;;5033821;28;20025;-70
2022/12/27 00:31:18;;;;;;;9.95;1.60;;;8.00;99.90;;;;;;5033878;28;20448;-69
2022/12/27 00:33:45;;;;;;;10.13;1.70;;;8.00;99.90;;;;;;5031450;28;20026;-72
2022/12/27 00:36:14;;;;;;;8.75;1.30;;;8.00;99.90;;;;;;5032763;28;20091;-70
2022/12/27 00:38:41;;;;;;;8.73;2.10;;;7.90;99.90;;;;;;5033927;28;20498;-71
2022/12/27 00:41:06;;;;;;;8.73;1.80;;;7.90;99.90;;;;;;5032413;28;20124;-70
2022/12/27 00:43:33;;;;;;;10.32;1.58;;;7.90;99.90;;;;;;5033814;28;20100;-70
2022/12/27 00:45:58;;;;;;;8.85;1.40;;;8.00;99.90;;;;;;5032045;28;20044;-69
2022/12/27 00:48:25;;;;;;;10.88;1.40;;;8.00;99.90;;;;;;5033221;28;20049;-69
2022/12/27 00:51:04;;;;;;;15.25;1.60;;;8.00;99.90;;;;;;5028427;28;20057;-68
2022/12/27 00:53:30;;;;;;;10.18;1.70;;;8.00;99.90;;;;;;5028073;28;20029;-68
2022/12/27 00:55:57;;;;;;;11.13;2.03;;;8.00;99.90;;;;;;5032951;28;20471;-70
2022/12/27 00:58:23;;;;;;;10.20;2.22;;;8.00;99.90;;;;;;5033559;28;20034;-68
2022/12/27 01:00:49;;;;;;;12.27;2.03;;;8.00;99.90;;;;;;5030151;28;20096;-70
2022/12/27 01:03:16;;;;;;;8.77;1.42;;;8.00;99.90;;;;;;5031417;28;20086;-68
2022/12/27 01:05:42;;;;;;;7.82;1.70;;;8.00;99.90;;;;;;5032634;28;20033;-69
2022/12/27 01:08:07;;;;;;;7.05;1.70;;;8.10;99.90;;;;;;5030814;28;20033;-69
2022/12/27 01:10:33;;;;;;;12.00;1.95;;;8.10;99.90;;;;;;5030662;28;20056;-69
2022/12/27 01:13:03;;;;;;;10.98;2.25;;;8.00;99.90;;;;;;5031714;28;20061;-70
2022/12/27 01:15:29;;;;;;;7.65;1.40;;;8.10;99.90;;;;;;5025484;28;20029;-68
2022/12/27 01:18:00;;;;;;;13.75;3.17;;;8.10;99.90;;;;;;5026352;28;20037;-71
2022/12/27 01:20:26;;;;;;;7.20;1.50;;;8.10;99.90;;;;;;5027347;28;20045;-70
2022/12/27 01:22:53;;;;;;;9.77;1.55;;;8.10;99.90;;;;;;5029920;28;20038;-70
2022/12/27 01:25:18;;;;;;;7.93;1.83;;;8.10;99.90;;;;;;5032074;28;20379;-70
2022/12/27 01:27:44;;;;;;;11.23;1.88;;;8.10;99.90;;;;;;5033169;28;20079;-71
2022/12/27 01:30:10;;;;;;;9.43;2.08;;;8.10;99.90;;;;;;5033083;28;20029;-70
2022/12/27 01:32:36;;;;;;;10.15;1.38;;;8.10;99.90;;;;;;5027515;28;20021;-71
2022/12/27 01:35:01;;;;;;;11.63;2.08;;;8.00;99.90;;;;;;5032706;28;20090;-69
2022/12/27 01:37:28;;;;;;;10.00;1.60;;;8.00;99.90;;;;;;5032918;28;20065;-69
2022/12/27 01:39:53;;;;;;;10.88;1.45;;;7.90;99.90;;;;;;5027556;28;20029;-68
2022/12/27 01:45:25;;;;;;;10.15;1.65;;;7.90;99.90;;;;;;5032906;28;20082;-68
2022/12/27 01:47:58;;;;;;;8.02;1.63;;;7.90;99.90;;;;;;5031258;28;20033;-70
2022/12/27 01:50:30;;;;;;;10.40;1.80;;;7.90;99.90;;;;;;5032429;28;20028;-70
2022/12/27 01:53:17;;;;;;;8.50;1.85;;;8.00;99.90;;;;;;5030087;28;20034;-69
2022/12/27 01:55:58;;;;;;;6.72;2.25;;;7.90;99.90;;;;;;5031764;28;20152;-70
2022/12/27 01:58:42;;;;;;;13.07;2.03;;;7.90;99.90;;;;;;5020210;28;20099;-69
2022/12/27 02:01:19;;;;;;;8.68;1.45;;;7.90;99.90;;;;;;5032147;28;20048;-69
2022/12/27 02:03:58;;;;;;;7.60;1.30;;;7.90;99.90;;;;;;5024545;28;20071;-68
2022/12/27 02:06:25;;;;;;;7.38;1.70;;;8.00;99.90;;;;;;5032890;28;20033;-69
2022/12/27 02:08:57;;;;;;;11.80;2.50;;;7.90;99.90;;;;;;5031091;28;20025;-69
2022/12/27 02:14:14;;;;;;;15.43;3.00;;;7.90;99.90;;;;;;5027225;28;20048;-69
2022/12/27 02:16:39;;;;;;;15.73;2.30;;;7.90;99.90;;;;;;5032010;28;20365;-69
2022/12/27 02:19:16;;;;;;;10.13;2.05;;;7.80;99.90;;;;;;5025984;28;20037;-68
2022/12/27 02:21:54;;;;;;;11.18;2.15;;;7.80;99.90;;;;;;5032115;28;20030;-69
2022/12/27 02:24:48;;;;;;;11.75;1.55;;;7.90;99.90;;;;;;5031588;28;20021;-69
2022/12/27 02:27:47;;;;;;;8.10;1.40;;;7.80;99.90;;;;;;5019707;28;20462;-69
2022/12/27 02:30:13;;;;;;;12.60;1.40;;;7.80;99.90;;;;;;5030453;28;20390;-68
2022/12/27 02:32:55;;;;;;;7.75;1.63;;;7.70;99.90;;;;;;5027010;28;20033;-72
2022/12/27 02:35:36;;;;;;;14.60;2.00;;;7.70;99.90;;;;;;5029468;28;20025;-69
2022/12/27 02:38:18;;;;;;;10.82;1.67;;;7.70;99.90;;;;;;5029037;28;20773;-70
2022/12/27 02:55:33;;;;;;;13.68;2.38;;;7.30;99.90;;;;;;5028270;28;20145;-69
2022/12/27 02:58:29;;;;;;;11.70;2.10;;;7.30;99.90;;;;;;5030757;28;20485;-69
2022/12/27 03:04:36;;;;;;;15.80;2.10;;;7.30;99.90;;;;;;5025649;28;20091;-71
2022/12/27 03:07:37;;;;;;;13.63;2.17;;;7.30;99.90;;;;;;5029175;28;20483;-69
2022/12/27 03:16:40;;;;;;;14.95;1.83;;;7.30;99.90;;;;;;5028222;28;20037;-69
2022/12/27 03:27:36;;;;;;;10.05;1.55;;;7.30;99.90;;;;;;5033850;28;20078;-69
2022/12/27 03:33:13;;;;;;;7.32;1.58;;;7.30;99.90;;;;;;5033639;28;20536;-68
2022/12/27 03:35:39;;;;;;;11.05;2.10;;;7.30;99.90;;;;;;5031810;28;20018;-68
2022/12/27 03:38:10;;;;;;;9.93;2.08;;;7.30;99.90;;;;;;5032550;28;20079;-69
2022/12/27 03:43:44;;;;;;;10.85;1.58;;;7.30;99.90;;;;;;5032041;28;20052;-68
2022/12/27 03:46:32;;;;;;;10.05;1.42;;;7.30;99.90;;;;;;5033838;28;20455;-68
2022/12/27 03:49:22;;;;;;;12.23;1.83;;;7.20;99.90;;;;;;5030197;28;20041;-67
2022/12/27 03:52:20;;;;;;;9.73;2.40;;;7.20;99.90;;;;;;5034059;28;20068;-69
2022/12/27 03:54:49;;;;;;;7.35;2.22;;;7.20;99.90;;;;;;5033069;28;20017;-68
2022/12/27 03:57:18;;;;;;;10.02;2.08;;;7.20;99.90;;;;;;5030068;28;20022;-70
2022/12/27 03:59:44;;;;;;;12.98;2.13;;;7.20;99.90;;;;;;5029767;28;20469;-70
2022/12/27 04:02:10;;;;;;;8.07;1.80;;;7.20;99.90;;;;;;5033654;28;20025;-69
2022/12/27 04:04:36;;;;;;;11.15;2.05;;;7.20;99.90;;;;;;5065465;28;20025;-70
2022/12/27 04:07:02;;;;;;;13.20;1.95;;;7.20;99.90;;;;;;5033628;28;20038;-69
2022/12/27 04:36:51;;;;;;;12.95;1.98;;;7.10;99.90;;;;;;5031908;28;20056;-69
2022/12/27 04:39:16;;;;;;;10.80;1.70;;;7.10;99.90;;;;;;5033073;28;20025;-69
2022/12/27 04:55:29;;;;;;;18.17;2.03;;;7.30;99.90;;;;;;5030803;28;20125;-69
2022/12/27 04:57:56;;;;;;;12.50;1.63;;;7.40;99.90;;;;;;5033557;28;20038;-69
2022/12/27 05:03:22;;;;;;;9.80;2.00;;;7.40;99.90;;;;;;5033599;28;20065;-68
2022/12/27 05:05:49;;;;;;;11.25;1.55;;;7.30;99.90;;;;;;5025525;28;20475;-69
2022/12/27 05:14:00;;;;;;;11.05;1.85;;;7.30;99.90;;;;;;5034316;28;20101;-69
2022/12/27 05:16:37;;;;;;;11.02;1.70;;;7.30;99.90;;;;;;5028025;28;20100;-69
2022/12/27 05:19:07;;;;;;;7.28;1.40;;;7.30;99.90;;;;;;5039115;28;20398;-69
2022/12/27 05:21:37;;;;;;;12.45;2.35;;;7.30;99.90;;;;;;5029758;28;20038;-69
2022/12/27 05:26:47;;;;;;;6.95;1.83;;;7.30;99.90;;;;;;5032289;28;20052;-69
2022/12/27 05:29:13;;;;;;;7.93;1.42;;;7.30;99.90;;;;;;5033473;28;20037;-69
2022/12/27 05:31:39;;;;;;;10.25;1.65;;;7.30;99.90;;;;;;5030279;28;20070;-68
2022/12/27 05:34:05;;;;;;;13.48;1.83;;;7.30;99.90;;;;;;5028902;28;20372;-69
2022/12/27 05:36:32;;;;;;;9.15;1.55;;;7.30;99.90;;;;;;5031836;28;20033;-69
2022/12/27 05:38:58;;;;;;;9.35;1.85;;;7.20;99.90;;;;;;5033160;28;20033;-69
2022/12/27 05:41:24;;;;;;;10.95;1.55;;;7.30;99.90;;;;;;5033199;28;20041;-68
2022/12/27 05:43:50;;;;;;;10.77;1.95;;;7.30;99.90;;;;;;5031404;28;20026;-69
2022/12/27 05:46:19;;;;;;;8.25;1.80;;;7.20;99.90;;;;;;5031959;28;20113;-69
2022/12/27 05:48:44;;;;;;;6.50;1.63;;;7.20;99.90;;;;;;5032752;28;20080;-69
2022/12/27 05:51:19;;;;;;;11.38;2.13;;;7.20;99.90;;;;;;5032757;28;20061;-68
2022/12/27 05:53:46;;;;;;;14.73;1.70;;;7.20;99.90;;;;;;5033050;28;20075;-68
2022/12/27 05:56:17;;;;;;;14.05;1.60;;;7.20;99.90;;;;;;5033143;28;20033;-69
2022/12/27 05:58:43;;;;;;;7.45;1.60;;;7.20;99.90;;;;;;5032454;28;20021;-69
2022/12/27 06:01:11;;;;;;;7.85;1.67;;;7.20;99.90;;;;;;5030805;28;20103;-69
2022/12/27 06:03:37;;;;;;;9.10;2.13;;;7.20;99.90;;;;;;5031834;28;20099;-69
2022/12/27 06:06:04;;;;;;;10.90;1.83;;;7.20;99.90;;;;;;5031972;28;20040;-69
2022/12/27 06:08:30;;;;;;;11.00;2.83;;;7.10;99.90;;;;;;5032641;28;20036;-69
2022/12/27 06:11:09;;;;;;;14.05;2.15;;;7.20;99.90;;;;;;5032875;28;20064;-69
2022/12/27 06:13:35;;;;;;;12.00;3.15;;;7.20;99.90;;;;;;5029960;28;20067;-69
2022/12/27 06:16:04;;;;;;;13.02;1.67;;;7.20;99.90;;;;;;5034804;28;20049;-69
2022/12/27 06:18:31;;;;;;;13.38;2.03;;;7.20;99.90;;;;;;5032302;28;20041;-69
2022/12/27 06:21:11;;;;;;;10.85;2.80;;;7.20;99.90;;;;;;5032164;28;20048;-69
2022/12/27 06:23:38;;;;;;;12.05;2.17;;;7.30;99.90;;;;;;5031311;28;20042;-69
2022/12/27 06:26:17;;;;;;;9.43;1.63;;;7.30;99.90;;;;;;5032343;28;20025;-69
2022/12/27 06:28:43;;;;;;;10.43;1.85;;;7.20;99.90;;;;;;5032362;28;20072;-69
2022/12/27 06:31:09;;;;;;;9.48;1.90;;;7.20;99.90;;;;;;5032137;28;20053;-69
2022/12/27 06:33:35;;;;;;;8.88;2.13;;;7.20;99.90;;;;;;5032400;28;20061;-69
2022/12/27 06:36:08;;;;;;;20.77;3.20;;;7.20;99.90;;;;;;5030778;28;20029;-69
2022/12/27 06:38:34;;;;;;;9.68;2.13;;;7.20;99.90;;;;;;5032656;28;20489;-68
2022/12/27 06:41:04;;;;;;;8.73;1.85;;;7.20;99.90;;;;;;5031985;28;20037;-69
2022/12/27 06:43:30;;;;;;;12.45;1.75;;;7.20;99.90;;;;;;5032505;28;20030;-68
2022/12/27 06:45:57;;;;;;;11.82;1.92;;;7.20;99.90;;;;;;5030353;28;20450;-69
2022/12/27 06:48:23;;;;;;;10.52;1.67;;;7.10;99.90;;;;;;5032270;28;20050;-69
2022/12/27 06:50:49;;;;;;;11.07;1.73;;;7.10;99.90;;;;;;5031895;28;20040;-69
2022/12/27 06:53:14;;;;;;;6.75;1.63;;;7.10;99.90;;;;;;5032798;28;20033;-69
2022/12/27 06:55:40;;;;;;;12.73;1.33;;;7.10;99.90;;;;;;5027154;28;20061;-69
2022/12/27 06:58:05;;;;;;;10.30;2.03;;;7.10;99.90;;;;;;5029838;28;20467;-69
2022/12/27 07:00:31;;;;;;;9.65;1.60;;;7.10;99.90;;;;;;5031815;28;20395;-68
2022/12/27 07:02:56;;;;;;;18.63;3.28;;;7.10;99.90;;;;;;5032762;28;20375;-69
2022/12/27 07:05:22;;;;;;;8.25;2.33;;;7.10;99.90;;;;;;5028319;28;20120;-69
2022/12/27 07:07:47;;;;;;;14.20;2.17;;;7.00;99.90;;;;;;5032137;28;20421;-69
2022/12/27 07:10:13;;;;;;;11.68;2.08;;;7.00;99.90;;;;;;5030665;28;20471;-69
2022/12/27 07:12:38;;;;;;;8.40;2.00;;;7.00;99.90;;;;;;5031759;28;20029;-69
2022/12/27 07:15:05;;;;;;;10.23;1.80;;;7.10;99.90;;;;;;5027757;28;20034;-69
2022/12/27 07:17:33;;;;;;;9.40;1.75;;;7.20;99.90;;;;;;5029300;28;20025;-69
2022/12/27 07:19:59;;;;;;;8.68;1.80;;;7.10;99.90;;;;;;5030330;28;20037;-69
2022/12/27 07:22:26;;;;;;;13.82;1.70;;;7.20;99.90;;;;;;5020505;28;20040;-69
2022/12/27 07:24:52;;;;;;;11.75;2.28;;;7.20;99.90;;;;;;5032217;28;20026;-70
2022/12/27 07:27:17;;;;;;;14.52;1.90;;;7.30;99.90;;;;;;5031341;28;20037;-69
2022/12/27 07:29:43;;;;;;;10.52;1.60;;;7.30;99.90;;;;;;5031279;28;20040;-69
2022/12/27 07:32:36;;;;;;;11.05;1.73;;;7.30;99.90;;;;;;5025212;28;20041;-67
2022/12/27 07:35:01;;;;;;;8.10;1.75;;;7.30;99.90;;;;;;5028089;28;20112;-68
2022/12/27 07:37:27;;;;;;;12.15;2.20;;;7.30;99.90;;;;;;5031338;28;20116;-68
2022/12/27 07:39:53;;;;;;;12.18;1.80;;;7.30;99.90;;;;;;5034348;28;20033;-68
2022/12/27 07:42:18;;;;;;;7.75;1.90;;;7.20;99.90;;;;;;5030664;28;20382;-69
2022/12/27 07:44:44;;;;;;;18.67;2.35;;;7.20;99.90;;;;;;5030220;28;20053;-67
2022/12/27 07:47:09;;;;;;;10.32;1.48;;;7.20;99.90;;;;;;5028858;28;20076;-67
2022/12/27 07:49:35;;;;;;;11.02;1.75;;;7.20;99.90;;;;;;5031414;28;20470;-67
2022/12/27 07:52:00;;;;;;;13.23;2.65;;;7.20;99.90;;;;;;5032731;28;20021;-68
2022/12/27 07:54:26;;;;;;;12.55;1.60;;;7.20;99.90;;;;;;5033296;28;20033;-67
2022/12/27 07:56:51;;;;;;;5.65;1.60;;;7.20;99.90;;;;;;5030976;28;20045;-68
2022/12/27 07:59:17;;;;;;;14.77;3.03;;;7.20;99.90;;;;;;5030624;28;20502;-70
2022/12/27 08:04:27;;;;;;;8.23;1.27;;;7.10;99.90;;;;;;5019433;28;20080;-68
2022/12/27 08:06:59;;;;;;;8.05;1.58;;;7.10;99.90;;;;;;5027614;28;20068;-68
2022/12/27 08:09:29;;;;;;;8.55;1.33;;;7.10;99.90;;;;;;5032465;28;20026;-68
2022/12/27 08:11:55;;;;;;;9.35;1.40;;;7.10;99.90;;;;;;5029378;28;20026;-68
2022/12/27 08:14:20;;;;;;;11.57;2.38;;;7.10;99.90;;;;;;5031150;28;20473;-68
2022/12/27 08:16:47;;;;;;;13.13;2.78;;;7.10;99.90;;;;;;5033777;28;20033;-68
2022/12/27 08:19:13;;;;;;;8.98;1.95;;;7.10;99.90;;;;;;5032699;28;20083;-67
2022/12/27 08:21:38;;;;;;;9.82;2.58;;;7.10;99.90;;;;;;5031758;28;20026;-68
2022/12/27 08:24:04;;;;;;;9.45;2.10;;;7.10;99.90;;;;;;5043995;28;20478;-68
2022/12/27 08:26:30;;;;;;;10.48;1.73;;;7.10;99.90;;;;;;5035665;28;20037;-67
2022/12/27 08:28:55;;;;;;;10.45;1.60;;;7.10;99.90;;;;;;5034326;28;20115;-68
2022/12/27 08:31:21;;;;;;;10.90;1.65;;;7.10;99.90;;;;;;5031948;28;20041;-68
2022/12/27 08:33:47;;;;;;;10.02;1.60;;;7.10;99.90;;;;;;5023011;28;20041;-69
2022/12/27 08:36:13;;;;;;;11.65;2.13;;;7.10;99.90;;;;;;5033394;28;20371;-67
2022/12/27 08:38:38;;;;;;;9.57;1.50;;;7.10;99.90;;;;;;5034258;28;20457;-67
2022/12/27 08:41:04;;;;;;;8.40;1.60;;;7.10;99.90;;;;;;5032506;28;20049;-68
2022/12/27 08:43:30;;;;;;;8.07;1.90;;;7.10;99.90;;;;;;5032316;28;20030;-68
2022/12/27 08:46:01;;;;;;;6.75;1.40;;;7.10;99.90;;;;;;5034471;28;20382;-67
2022/12/27 08:48:26;;;;;;;10.40;2.30;;;7.20;99.90;;;;;;5033921;28;20167;-67
2022/12/27 08:50:52;;;;;;;25.63;2.60;;;7.20;99.90;;;;;;5029172;28;20199;-68
2022/12/27 08:53:18;;;;;;;7.13;1.50;;;7.30;99.90;;;;;;5052864;28;20026;-68
2022/12/27 08:55:43;;;;;;;6.45;1.00;;;7.30;99.90;;;;;;5032765;28;20065;-68
2022/12/27 08:58:10;;;;;;;3.60;1.52;;;7.30;99.90;;;;;;5032594;28;20029;-68
2022/12/27 09:00:36;;;;;;;5.55;1.52;;;7.30;99.90;;;;;;5032157;28;20030;-68
2022/12/27 09:03:02;;;;;;;9.25;1.65;;;7.30;99.90;;;;;;5024533;28;20037;-68
2022/12/27 09:05:28;;;;;;;16.48;2.65;;;7.30;99.90;;;;;;5033387;28;20055;-68
2022/12/27 09:07:54;;;;;;;9.15;1.88;;;7.40;99.90;;;;;;5027912;28;20060;-68
2022/12/27 09:10:20;;;;;;;7.13;1.50;;;7.40;99.90;;;;;;5033835;28;20030;-67
2022/12/27 09:12:46;;;;;;;6.85;1.73;;;7.50;99.90;;;;;;5025102;28;20021;-67
2022/12/27 09:15:12;;;;;;;10.35;1.63;;;7.60;99.90;;;;;;5033173;28;20364;-67
2022/12/27 09:17:38;;;;;;;6.38;1.75;;;7.70;99.90;;;;;;5034029;28;20385;-67
2022/12/27 09:20:04;;;;;;;9.07;1.63;;;7.70;99.90;;;;;;5031689;28;20041;-67
2022/12/27 09:22:30;;;;;;;13.00;2.20;;;7.90;99.90;;;;;;5031646;28;20098;-68
2022/12/27 09:24:55;;;;;;;13.60;1.60;;;7.90;99.90;;;;;;5032297;28;20025;-70
2022/12/27 09:27:21;;;;;;;9.88;1.58;;;7.90;99.90;;;;;;5036402;28;20510;-69
2022/12/27 09:29:46;;;;;;;8.38;2.53;;;8.00;99.90;;;;;;5033807;28;20090;-69
2022/12/27 09:32:12;;;;;;;11.88;1.40;;;8.00;99.90;;;;;;5028929;28;20069;-69
2022/12/27 09:34:38;;;;;;;5.10;1.20;;;8.10;99.90;;;;;;5034652;28;20029;-69
2022/12/27 09:37:03;;;;;;;5.20;1.20;;;8.10;99.90;;;;;;5032985;28;20202;-69
2022/12/27 09:39:29;;;;;;;17.80;3.53;;;8.10;99.90;;;;;;5031483;28;20045;-70
2022/12/27 09:42:26;;;;;;;11.63;1.80;;;8.10;99.90;;;;;;5025235;28;20026;-68
2022/12/27 09:45:16;;;;;;;12.15;2.17;;;8.10;99.90;;;;;;5023663;28;20041;-68
2022/12/27 09:47:48;;;;;;;7.78;1.65;;;8.10;99.90;;;;;;5032932;28;20032;-69
2022/12/27 09:50:30;;;;;;;16.70;1.80;;;8.10;99.90;;;;;;5029447;28;20449;-68
2022/12/27 09:53:11;;;;;;;8.80;1.60;;;8.10;99.90;;;;;;5027106;28;20081;-67
2022/12/27 09:55:40;;;;;;;15.63;2.13;;;8.20;99.90;;;;;;5028152;28;20029;-67
2022/12/27 09:58:24;;;;;;;8.90;1.75;;;8.20;99.90;;;;;;5028326;28;20143;-70
2022/12/27 10:00:50;;;;;;;9.82;1.52;;;8.40;99.90;;;;;;5029512;28;20553;-68
2022/12/27 10:03:19;;;;;;;8.07;1.55;;;8.50;99.90;;;;;;5026253;28;20029;-68
2022/12/27 10:05:48;;;;;;;10.57;2.25;;;8.60;99.90;;;;;;5029721;28;20026;-68
2022/12/27 10:08:17;;;;;;;7.00;1.80;;;8.70;99.90;;;;;;5031045;28;20025;-69
2022/12/27 10:11:08;;;;;;;11.60;1.58;;;8.90;99.90;;;;;;5029345;28;20047;-68
2022/12/27 10:13:56;;;;;;;5.32;1.70;;;8.90;99.90;;;;;;5026530;28;20026;-68
2022/12/27 10:16:49;;;;;;;14.85;2.17;;;9.00;99.90;;;;;;5030914;28;20057;-69
2022/12/27 10:19:41;;;;;;;11.35;2.17;;;9.20;99.90;;;;;;5027481;28;20029;-68
2022/12/27 10:22:29;;;;;;;7.63;3.00;;;9.40;99.90;;;;;;5029760;28;20037;-69
2022/12/27 10:24:58;;;;;;;9.30;2.10;;;9.50;99.90;;;;;;5024415;28;20071;-70
2022/12/27 10:27:26;;;;;;;9.43;1.98;;;9.50;99.90;;;;;;5027193;28;20034;-69
2022/12/27 10:29:54;;;;;;;15.10;1.98;;;9.50;99.90;;;;;;5021291;28;20026;-69
2022/12/27 10:32:20;;;;;;;7.47;2.33;;;9.40;99.90;;;;;;5017468;28;20018;-68
2022/12/27 10:34:51;;;;;;;7.10;1.80;;;9.40;99.90;;;;;;5015988;28;20025;-69
2022/12/27 10:37:17;;;;;;;10.73;1.92;;;9.40;99.90;;;;;;5020017;28;20060;-69
2022/12/27 10:39:42;;;;;;;13.07;2.00;;;9.40;99.90;;;;;;5022331;28;20089;-69
2022/12/27 10:42:37;;;;;;;10.13;2.78;;;9.60;99.90;;;;;;5030262;28;20033;-69
2022/12/27 10:45:25;;;;;;;11.88;2.55;;;9.90;99.90;;;;;;5026091;28;20497;-69
2022/12/27 10:47:53;;;;;;;12.35;2.15;;;10.10;99.90;;;;;;5027670;28;20045;-69
2022/12/27 10:50:22;;;;;;;10.55;1.90;;;10.30;99.90;;;;;;5031843;28;20028;-69
2022/12/27 10:52:47;;;;;;;12.88;2.50;;;10.50;99.90;;;;;;5025547;28;20041;-68
2022/12/27 10:55:36;;;;;;;8.50;2.10;;;10.50;99.90;;;;;;5027896;28;20068;-69
2022/12/27 10:58:32;;;;;;;11.70;2.17;;;10.50;99.90;;;;;;5028458;28;20026;-69
2022/12/27 11:00:58;;;;;;;9.75;2.30;;;10.30;99.90;;;;;;5030106;28;20033;-69
2022/12/27 11:03:25;;;;;;;16.52;2.70;;;10.20;99.90;;;;;;5022074;28;20356;-69
2022/12/27 11:06:01;;;;;;;16.73;2.72;;;10.10;99.90;;;;;;5021235;28;20171;-69
2022/12/27 11:08:28;;;;;;;12.38;2.65;;;10.00;99.90;;;;;;5022111;28;20033;-69
2022/12/27 11:11:23;;;;;;;12.90;2.88;;;10.00;99.90;;;;;;5029806;28;20022;-69
2022/12/27 11:13:50;;;;;;;18.17;2.75;;;9.90;99.90;;;;;;5015172;28;20055;-69
2022/12/27 11:16:29;;;;;;;11.18;3.05;;;9.80;99.90;;;;;;5030393;28;20034;-69
2022/12/27 11:18:57;;;;;;;10.20;2.28;;;9.70;99.90;;;;;;5032152;28;20374;-70
2022/12/27 11:21:24;;;;;;;9.20;2.60;;;9.70;99.90;;;;;;5030148;28;20038;-69
2022/12/27 11:23:54;;;;;;;12.77;2.53;;;9.70;99.90;;;;;;5019601;28;20029;-70
2022/12/27 11:26:24;;;;;;;11.32;2.58;;;9.60;99.90;;;;;;5024302;28;20041;-68
2022/12/27 11:28:56;;;;;;;14.85;2.53;;;9.60;99.90;;;;;;5015172;28;20141;-69
2022/12/27 11:31:37;;;;;;;9.50;2.63;;;9.60;99.90;;;;;;5022496;28;20091;-71
2022/12/27 11:34:14;;;;;;;11.00;2.88;;;9.60;99.90;;;;;;5027842;28;20034;-70
2022/12/27 11:36:42;;;;;;;8.60;1.95;;;9.60;99.90;;;;;;5023394;28;20409;-69
2022/12/27 11:39:51;;;;;;;8.93;2.95;;;9.60;99.90;;;;;;5028348;28;20030;-69
2022/12/27 11:42:31;;;;;;;14.35;2.83;;;9.50;99.90;;;;;;5017766;28;20033;-71
2022/12/27 11:45:28;;;;;;;13.52;2.38;;;9.60;99.90;;;;;;5024651;28;20044;-70
2022/12/27 11:48:15;;;;;;;11.70;2.22;;;9.70;99.90;;;;;;5028930;28;20079;-71
2022/12/27 11:51:11;;;;;;;9.45;1.77;;;9.80;99.90;;;;;;5022836;28;20044;-69
2022/12/27 11:54:04;;;;;;;8.75;2.35;;;9.80;99.90;;;;;;5027176;28;20040;-68
2022/12/27 11:56:35;;;;;;;8.20;2.22;;;9.90;99.90;;;;;;5025995;28;20072;-69
2022/12/27 11:59:28;;;;;;;11.63;2.65;;;10.10;99.90;;;;;;5020355;28;20033;-69
2022/12/27 12:02:14;;;;;;;15.73;2.33;;;10.10;99.90;;;;;;5030281;28;20037;-69
2022/12/27 12:05:22;;;;;;;7.97;1.90;;;10.10;99.90;;;;;;5034103;28;20048;-69
2022/12/27 12:08:19;;;;;;;9.57;2.10;;;10.10;99.90;;;;;;5034334;28;20032;-69
2022/12/27 12:11:02;;;;;;;6.15;1.70;;;10.00;99.90;;;;;;5027547;28;20021;-69
2022/12/27 12:13:38;;;;;;;;;;;9.90;99.90;;;;;;5033368;28;20076;-70
2022/12/27 12:16:25;;;;;;;8.18;2.25;;;9.80;99.90;;;;;;5035064;28;19917;-71
2022/12/27 12:19:06;;;;;;;10.65;2.70;;;9.90;99.90;;;;;;5027349;28;20101;-69
2022/12/27 12:21:52;;;;;;;6.65;2.85;;;9.90;99.90;;;;;;5034627;28;20036;-69
2022/12/27 12:24:40;;;;;;;13.07;2.55;;;9.80;99.90;;;;;;5030495;28;20029;-69
2022/12/27 12:27:45;;;;;;;14.02;2.65;;;9.80;99.90;;;;;;5027479;28;20029;-71
2022/12/27 12:30:26;;;;;;;11.68;2.67;;;9.60;99.90;;;;;;5021499;28;20090;-68
2022/12/27 12:33:16;;;;;;;10.77;3.22;;;9.60;99.90;;;;;;5028138;28;20029;-68
2022/12/27 12:36:08;;;;;;;8.07;2.70;;;9.50;99.90;;;;;;5031225;28;20036;-69
2022/12/27 12:38:37;;;;;;;14.48;3.15;;;9.50;99.90;;;;;;5016441;28;20030;-70
2022/12/27 12:41:06;;;;;;;23.30;3.78;;;9.50;99.90;;;;;;5023966;28;20042;-68
2022/12/27 12:43:45;;;;;;;8.70;2.30;;;9.60;99.90;;;;;;5026319;28;20126;-68
2022/12/27 12:46:48;;;;;;;13.20;2.72;;;9.60;99.90;;;;;;5021668;28;20036;-70
2022/12/27 12:49:41;;;;;;;11.13;2.40;;;9.50;99.90;;;;;;5031451;28;20049;-69
2022/12/27 12:52:31;;;;;;;13.25;3.10;;;9.50;99.90;;;;;;5032738;28;20065;-69
2022/12/27 12:55:18;;;;;;;13.60;3.50;;;9.50;99.90;;;;;;5024932;28;20033;-69
2022/12/27 12:58:12;;;;;;;13.25;3.03;;;9.50;99.90;;;;;;5027657;28;20087;-68
2022/12/27 13:01:15;;;;;;;12.18;2.83;;;9.50;99.90;;;;;;5028378;28;20049;-70
2022/12/27 13:03:40;;;;;;;8.88;2.60;;;9.50;99.90;;;;;;5027757;28;20107;-69
2022/12/27 13:06:26;;;;;;;13.48;3.05;;;9.70;99.90;;;;;;5030482;28;20482;-71
2022/12/27 13:09:13;;;;;;;7.38;2.63;;;9.90;99.90;;;;;;5020121;28;20041;-69
2022/12/27 13:12:07;;;;;;;10.52;2.70;;;10.10;99.90;;;;;;5020568;28;20061;-69
2022/12/27 13:14:59;;;;;;;9.77;3.17;;;10.10;99.90;;;;;;5028751;28;20064;-69
2022/12/27 13:17:54;;;;;;;6.53;2.20;;;10.20;99.90;;;;;;5030760;28;20056;-69
2022/12/27 13:20:44;;;;;;;9.88;3.05;;;10.20;99.90;;;;;;5018058;28;20363;-69
2022/12/27 13:23:41;;;;;;;6.65;2.10;;;10.10;99.90;;;;;;5023300;28;20052;-72
2022/12/27 13:26:35;;;;;;;11.60;3.72;;;10.10;99.90;;;;;;5021480;28;20045;-71
2022/12/27 13:29:24;;;;;;;15.23;3.35;;;10.20;99.90;;;;;;5026464;28;20052;-69
2022/12/27 13:32:07;;;;;;;10.43;2.40;;;10.20;99.90;;;;;;5025549;28;20030;-68
2022/12/27 13:34:36;;;;;;;3.08;1.55;;;10.20;99.90;;;;;;5021450;28;20061;-69
2022/12/27 13:37:37;;;;;;;8.80;2.72;;;10.20;99.90;;;;;;5031011;28;20519;-70
2022/12/27 13:40:40;;;;;;;13.43;2.53;;;10.20;99.90;;;;;;5023629;28;20046;-70
2022/12/27 13:43:28;;;;;;;8.30;2.75;;;10.20;99.90;;;;;;5011631;28;20033;-70
2022/12/27 13:46:31;;;;;;;9.60;3.13;;;10.10;99.90;;;;;;5030484;28;20432;-69
2022/12/27 13:48:56;;;;;;;4.68;1.52;;;10.10;99.90;;;;;;5022645;28;20046;-69
2022/12/27 13:51:41;;;;;;;12.20;3.20;;;10.00;99.90;;;;;;5027473;28;20034;-70
2022/12/27 13:54:38;;;;;;;8.60;3.15;;;9.90;99.90;;;;;;5022308;28;20139;-70
2022/12/27 13:57:39;;;;;;;8.85;3.45;;;9.90;99.90;;;;;;5032614;28;20048;-71
2022/12/27 14:00:08;;;;;;;11.60;3.67;;;9.80;99.90;;;;;;5027939;28;20426;-70
2022/12/27 14:02:36;;;;;;;10.63;2.88;;;9.70;99.90;;;;;;5029651;28;20041;-68
2022/12/27 14:05:17;;;;;;;11.18;3.78;;;9.60;99.90;;;;;;5031593;28;20104;-71
2022/12/27 14:07:52;;;;;;;16.13;4.10;;;9.50;99.90;;;;;;5031821;28;20032;-68
2022/12/27 14:10:56;;;;;;;12.60;3.92;;;9.50;99.90;;;;;;5025951;28;20026;-70
2022/12/27 14:13:32;;;;;;;15.68;4.95;;;9.50;99.90;;;;;;5029975;28;20033;-70
2022/12/27 14:16:27;;;;;;;14.25;3.58;;;9.50;99.90;;;;;;5029727;28;20025;-71
2022/12/27 14:19:12;;;;;;;11.50;4.15;;;9.40;99.90;;;;;;5016531;28;20044;-71
2022/12/27 14:21:53;;;;;;;16.20;4.30;;;9.30;99.90;;;;;;5019276;28;20091;-70
2022/12/27 14:24:43;;;;;;;12.52;3.78;;;9.30;99.90;;;;;;5026927;28;20033;-69
2022/12/27 14:27:27;;;;;;;9.35;3.40;;;9.20;99.90;;;;;;5031680;28;20029;-69
2022/12/27 14:30:17;;;;;;;11.68;2.95;;;9.20;99.90;;;;;;5031917;28;20352;-69
2022/12/27 14:33:04;;;;;;;11.80;3.75;;;9.10;99.90;;;;;;5024793;28;20234;-69
2022/12/27 14:35:49;;;;;;;11.80;3.25;;;9.10;99.90;;;;;;5032034;28;20092;-70
2022/12/27 14:38:54;;;;;;;10.75;3.67;;;9.10;99.90;;;;;;5030535;28;20449;-68
2022/12/27 14:41:57;;;;;;;7.15;2.47;;;9.00;99.90;;;;;;5028751;28;20056;-68
2022/12/27 14:44:54;;;;;;;15.43;3.67;;;9.00;99.90;;;;;;5028843;28;20213;-68
2022/12/27 14:47:29;;;;;;;9.48;2.95;;;9.00;99.90;;;;;;5060427;28;20030;-71
2022/12/27 14:50:12;;;;;;;6.60;2.42;;;8.90;99.90;;;;;;5031401;28;20037;-70
2022/12/27 14:53:02;;;;;;;8.05;3.20;;;8.90;99.90;;;;;;5029883;28;20124;-70
2022/12/27 14:55:39;;;;;;;4.00;2.25;;;8.90;99.90;;;;;;5030526;28;20017;-68
2022/12/27 14:58:13;;;;;;;6.28;2.58;;;8.80;99.90;;;;;;5032223;28;20037;-69
2022/12/27 15:01:09;;;;;;;8.85;3.17;;;8.80;99.90;;;;;;5026255;28;20033;-68
2022/12/27 15:03:57;;;;;;;8.95;3.28;;;8.70;99.90;;;;;;5027921;28;20069;-69
2022/12/27 15:06:43;;;;;;;9.50;2.97;;;8.70;99.90;;;;;;5030163;28;20026;-68
2022/12/27 15:09:11;;;;;;;7.28;2.60;;;8.70;99.90;;;;;;5027405;28;20026;-69